Bronx, NY (10472)

7:32 PM EST on December 04, 2016 (GMT -0500)
Clason Point | | Change Station

Elev 26 ft 40.81 °N, 73.86 °W | Updated 31 seconds ago

Mostly Cloudy
Mostly Cloudy
41.1 °F
Feels Like 41 °F
N
0.0
Wind Variable Wind from WSW

Today
High -- | Low -- °F
--% Chance of Precip.
Yesterday
High -- | Low -- °F
Precip. -- in
Pressure 30.19 in
Visibility 10.0 miles
Clouds Scattered Clouds 15000 ft
Mostly Cloudy 25000 ft
Windchill 41 °F
Dew Point 29 °F
Humidity 61%
Rainfall 0.00 in
Snow Depth Not available.
7:03 AM 4:27 PM
Waxing Crescent, 26% visible
METAR KLGA 042351Z 07008KT 10SM SCT150 BKN250 07/M04 A3019 RMK AO2 SLP222 T00671044 10089 20067 50000 $
Pressure 30.19 in
Visibility 10.0 miles
Clouds Scattered Clouds 15000 ft
Mostly Cloudy 25000 ft
Windchill 41 °F
Dew Point 29 °F
Humidity 61%
Rainfall 0.00 in
Snow Depth Not available.
7:03 AM 4:27 PM
Waxing Crescent, 26% visible
METAR KLGA 042351Z 07008KT 10SM SCT150 BKN250 07/M04 A3019 RMK AO2 SLP222 T00671044 10089 20067 50000 $

10-Day Weather Forecast

Almanac

Astronomy

Dec. 04, 2016 Rise Set
Actual Time
Civil Twilight
Nautical Twilight
Astronomical Twilight
Moon
Length of Visible Light
Length of Day
Tomorrow will be .
, % of the Moon is Illuminated

Today's Extremes

State Highs State Lows

Community

WunderPhotos

Upload Photos

1,955,725 photos uploaded!

WunderBlog® & News

Nearby

Air Quality

  Air Quality AQ Index Pollutant
Not available.

Snow Depth

Station Depth Elevation

Earthquake Activity

City Distance Mag. Time & Date
Minimum magnitude displayed is 2.5.

Coastal Water Temperatures

Place Temperature

Stations

Nearby Weather Stations

Station Location Temp. Windchill Dew Point Humidity Wind Precip. Elev Updated Type
                   

Watches & Warnings

There are currently no watches in effect.